Time;durP1;ratioP1;P1;durP2;ratioP2;P2;SDS_P1;SDS_P2;PMS_P1;PMS_P2;Temp;Humidity;BMP_temperature;BMP_pressure;BME280_temperature;BME280_humidity;BME280_pressure;Samples;Min_cycle;Max_cycle;Signal;HPM_P1;HPM_P2
2021/05/20 00:01:21;;;;;;;15.90;13.48;;;10.20;90.60;;;;;;4996516;28;20413;-80
2021/05/20 00:06:50;;;;;;;19.40;14.43;;;10.20;90.70;;;;;;5013533;28;20086;-81
2021/05/20 00:09:16;;;;;;;18.92;14.98;;;10.10;90.70;;;;;;4996641;28;20477;-81
2021/05/20 00:12:00;;;;;;;21.48;15.20;;;10.10;90.70;;;;;;4999970;28;20109;-80
2021/05/20 00:14:27;;;;;;;21.58;15.43;;;10.10;90.80;;;;;;5001625;28;20031;-82
2021/05/20 00:17:12;;;;;;;20.02;14.88;;;10.10;90.80;;;;;;5037087;28;20086;-82
2021/05/20 00:22:41;;;;;;;25.98;18.33;;;10.00;90.90;;;;;;5024470;28;20036;-81
2021/05/20 00:25:07;;;;;;;22.88;18.13;;;10.00;90.90;;;;;;4999838;28;20100;-81
2021/05/20 00:27:33;;;;;;;20.70;15.80;;;10.00;91.00;;;;;;4999893;28;20041;-81
2021/05/20 00:30:18;;;;;;;22.30;17.30;;;10.00;90.90;;;;;;4999557;28;20026;-81
2021/05/20 00:32:43;;;;;;;28.35;18.48;;;10.10;90.80;;;;;;5017083;28;20026;-80
2021/05/20 00:35:28;;;;;;;30.08;20.73;;;10.00;90.80;;;;;;5000240;28;20478;-81
2021/05/20 00:38:12;;;;;;;30.13;21.73;;;10.00;90.80;;;;;;4999365;28;20030;-81
2021/05/20 00:40:38;;;;;;;30.73;24.50;;;10.00;90.80;;;;;;5017353;28;20084;-81
2021/05/20 00:43:04;;;;;;;33.50;23.98;;;10.00;91.00;;;;;;5002076;28;20069;-81
2021/05/20 00:48:34;;;;;;;30.50;23.75;;;10.00;91.00;;;;;;5033560;28;20037;-79
2021/05/20 00:54:03;;;;;;;37.97;29.20;;;10.00;91.20;;;;;;5037333;28;20092;-81
2021/05/20 00:56:48;;;;;;;38.00;27.50;;;9.90;91.20;;;;;;5005990;28;20037;-81
2021/05/20 01:05:10;;;;;;;44.83;31.02;;;9.80;91.20;;;;;;5016370;28;20056;-80
2021/05/20 01:07:35;;;;;;;43.08;30.35;;;9.80;91.20;;;;;;4998754;28;20022;-82
2021/05/20 01:10:06;;;;;;;40.38;30.65;;;9.80;91.30;;;;;;4999400;28;20022;-81
2021/05/20 01:15:35;;;;;;;41.28;29.88;;;9.70;91.40;;;;;;5016296;28;20040;-81
2021/05/20 01:18:03;;;;;;;49.75;35.33;;;9.70;91.40;;;;;;4998187;28;20077;-81
2021/05/20 01:20:48;;;;;;;48.33;34.38;;;9.70;91.50;;;;;;4998528;28;20032;-82
2021/05/20 01:26:22;;;;;;;44.07;32.20;;;9.60;91.60;;;;;;5017005;28;20037;-81
2021/05/20 01:28:48;;;;;;;59.38;41.60;;;9.60;91.70;;;;;;4998840;28;20030;-81
2021/05/20 01:31:32;;;;;;;63.92;42.55;;;9.60;91.80;;;;;;4997931;28;20136;-81
2021/05/20 01:33:58;;;;;;;60.67;41.80;;;9.60;92.10;;;;;;4998194;28;20033;-81
2021/05/20 01:36:43;;;;;;;59.50;42.55;;;9.50;92.50;;;;;;5001392;28;20022;-82
2021/05/20 01:39:27;;;;;;;71.93;46.40;;;9.50;92.40;;;;;;4999243;28;20045;-82
2021/05/20 01:44:56;;;;;;;70.05;45.38;;;9.50;92.70;;;;;;5018525;28;20052;-81
2021/05/20 01:50:06;;;;;;;66.07;43.90;;;9.50;92.60;;;;;;5016112;28;20126;-81
2021/05/20 01:52:50;;;;;;;74.72;48.67;;;9.50;92.50;;;;;;4997868;28;20061;-80
2021/05/20 01:55:34;;;;;;;64.15;42.00;;;9.40;92.80;;;;;;4998050;28;20029;-81
2021/05/20 01:58:19;;;;;;;72.20;46.22;;;9.40;92.80;;;;;;4997934;28;20033;-81
2021/05/20 02:01:03;;;;;;;72.53;46.30;;;9.40;92.90;;;;;;4997953;28;20450;-81
2021/05/20 02:06:13;;;;;;;72.05;45.03;;;9.40;93.10;;;;;;5016413;28;20072;-80
2021/05/20 02:08:57;;;;;;;76.03;46.55;;;9.40;93.00;;;;;;4999439;28;20054;-80
2021/05/20 02:11:42;;;;;;;76.68;47.70;;;9.40;92.90;;;;;;5032524;28;20029;-81
2021/05/20 02:14:26;;;;;;;79.20;46.63;;;9.40;93.00;;;;;;5015720;28;20080;-82
2021/05/20 02:16:52;;;;;;;70.10;43.15;;;9.40;93.00;;;;;;5011051;28;20053;-82
2021/05/20 02:19:36;;;;;;;75.97;45.95;;;9.40;93.00;;;;;;5004992;28;20022;-81
2021/05/20 02:22:01;;;;;;;81.88;47.00;;;9.40;93.00;;;;;;4997233;28;20025;-81
2021/05/20 02:27:49;;;;;;;79.00;46.97;;;9.50;93.00;;;;;;5014825;28;20037;-81
2021/05/20 02:30:16;;;;;;;93.85;48.70;;;9.50;92.90;;;;;;4997163;28;20026;-80
2021/05/20 02:32:42;;;;;;;83.70;49.05;;;9.50;93.00;;;;;;4996755;28;20133;-81
2021/05/20 02:35:27;;;;;;;80.65;46.97;;;9.50;93.00;;;;;;4996812;28;20030;-80
2021/05/20 02:37:53;;;;;;;103.72;46.33;;;9.50;93.10;;;;;;4997547;28;20128;-80
2021/05/20 02:40:56;;;;;;;118.32;47.47;;;9.50;93.10;;;;;;4997906;28;20362;-80
2021/05/20 02:49:09;;;;;;;122.07;47.60;;;9.50;93.30;;;;;;5037034;28;20071;-81
2021/05/20 02:51:35;;;;;;;85.95;38.22;;;9.50;93.40;;;;;;5035585;28;20063;-81
2021/05/20 02:56:44;;;;;;;175.23;44.20;;;9.50;93.80;;;;;;5015540;28;20044;-81
2021/05/20 02:59:29;;;;;;;143.82;40.92;;;9.60;93.60;;;;;;4997071;28;20112;-81
2021/05/20 03:02:13;;;;;;;135.20;42.03;;;9.60;93.70;;;;;;4997711;28;20534;-81
2021/05/20 03:04:58;;;;;;;103.82;38.55;;;9.60;93.80;;;;;;5004594;28;20050;-80
2021/05/20 03:07:42;;;;;;;186.20;42.22;;;9.60;93.70;;;;;;5013265;28;20035;-82
2021/05/20 03:10:08;;;;;;;129.65;40.10;;;9.60;93.80;;;;;;4997667;28;20033;-82
2021/05/20 03:12:34;;;;;;;103.50;40.50;;;9.60;93.70;;;;;;4997114;28;20084;-82
2021/05/20 03:17:45;;;;;;;143.10;39.72;;;9.60;93.60;;;;;;5014460;28;20088;-82
2021/05/20 03:20:11;;;;;;;95.50;38.33;;;9.60;93.50;;;;;;5014620;28;20025;-81
2021/05/20 03:22:37;;;;;;;107.82;40.10;;;9.60;93.50;;;;;;5014176;28;20028;-81
2021/05/20 03:25:22;;;;;;;140.70;38.60;;;9.60;93.50;;;;;;4996530;28;20113;-81
2021/05/20 03:30:31;;;;;;;90.53;37.97;;;9.60;93.40;;;;;;5014102;28;20044;-81
2021/05/20 03:32:57;;;;;;;104.72;38.45;;;9.60;93.40;;;;;;4996670;28;20025;-80
2021/05/20 03:35:23;;;;;;;74.15;37.10;;;9.60;93.30;;;;;;4995988;28;20133;-80
2021/05/20 03:41:10;;;;;;;93.82;39.20;;;9.60;93.30;;;;;;5013997;28;20037;-82
2021/05/20 03:43:36;;;;;;;80.53;38.03;;;9.70;93.20;;;;;;4996968;28;20080;-80
2021/05/20 03:46:02;;;;;;;107.28;36.25;;;9.70;93.00;;;;;;5003940;28;20425;-80
2021/05/20 03:53:57;;;;;;;68.80;35.80;;;9.60;92.70;;;;;;5018833;28;20036;-81
2021/05/20 03:59:25;;;;;;;70.05;33.28;;;9.60;92.60;;;;;;5018236;28;20163;-81
2021/05/20 04:01:51;;;;;;;71.30;35.05;;;9.60;92.50;;;;;;5000841;28;20041;-81
2021/05/20 04:04:16;;;;;;;62.78;33.38;;;9.50;92.50;;;;;;5000844;28;20489;-81
2021/05/20 04:09:27;;;;;;;63.88;35.55;;;9.50;92.40;;;;;;5036843;28;20121;-81
2021/05/20 04:11:52;;;;;;;69.63;32.08;;;9.40;92.40;;;;;;5009787;28;20026;-81
2021/05/20 04:14:37;;;;;;;74.60;34.47;;;9.40;92.40;;;;;;5000608;28;20072;-84
2021/05/20 04:17:03;;;;;;;68.03;32.28;;;9.40;92.50;;;;;;5000153;28;20026;-80
2021/05/20 04:19:28;;;;;;;80.80;33.67;;;9.40;92.60;;;;;;4999212;28;20029;-80
2021/05/20 04:25:35;;;;;;;58.90;33.75;;;9.50;92.60;;;;;;5016960;28;20540;-81
2021/05/20 04:28:19;;;;;;;62.30;32.47;;;9.50;92.60;;;;;;4999618;28;20053;-82
2021/05/20 04:33:48;;;;;;;60.45;32.10;;;9.50;92.50;;;;;;5019792;28;20033;-81
2021/05/20 04:36:32;;;;;;;49.92;30.48;;;9.50;92.40;;;;;;5000981;28;20390;-83
2021/05/20 04:41:42;;;;;;;59.28;31.55;;;9.50;92.20;;;;;;5024248;28;20037;-81
2021/05/20 04:44:08;;;;;;;61.30;32.90;;;9.50;92.30;;;;;;5022219;28;20026;-81
2021/05/20 04:46:34;;;;;;;50.00;31.60;;;9.50;92.40;;;;;;5021309;28;20109;-80
2021/05/20 04:49:18;;;;;;;48.95;28.27;;;9.60;92.40;;;;;;5022561;28;20026;-82
2021/05/20 04:51:44;;;;;;;60.25;31.85;;;9.60;92.30;;;;;;5015295;28;20026;-82
2021/05/20 04:56:54;;;;;;;61.50;32.20;;;9.60;92.10;;;;;;5016867;28;20547;-81
2021/05/20 04:59:19;;;;;;;50.28;30.42;;;9.60;92.10;;;;;;5003055;28;20030;-81
2021/05/20 05:02:03;;;;;;;60.38;32.63;;;9.50;92.10;;;;;;5022497;28;20068;-82
2021/05/20 05:04:48;;;;;;;54.35;32.85;;;9.50;92.30;;;;;;5001012;28;20057;-81
2021/05/20 05:07:51;;;;;;;80.88;31.77;;;9.60;92.40;;;;;;5001437;28;20030;-82
2021/05/20 05:10:54;;;;;;;66.15;32.72;;;9.70;92.20;;;;;;4999474;28;20539;-80
2021/05/20 05:13:39;;;;;;;45.75;26.58;;;9.60;92.20;;;;;;5020871;28;20014;-79
2021/05/20 05:19:08;;;;;;;83.57;33.50;;;9.70;92.30;;;;;;5016905;28;20092;-79
2021/05/20 05:21:33;;;;;;;53.72;30.52;;;9.70;92.30;;;;;;4999847;28;20029;-82
2021/05/20 05:23:59;;;;;;;50.90;31.17;;;9.80;92.20;;;;;;4998990;28;20037;-81
2021/05/20 05:26:43;;;;;;;54.53;30.85;;;9.90;92.00;;;;;;4999120;28;20022;-81
2021/05/20 05:29:28;;;;;;;54.80;30.17;;;9.90;92.00;;;;;;4999755;28;20021;-81
2021/05/20 05:34:38;;;;;;;69.82;33.80;;;10.10;91.80;;;;;;5017737;28;20385;-82
2021/05/20 05:42:53;;;;;;;57.03;33.33;;;10.20;91.80;;;;;;5017232;28;20041;-82
2021/05/20 05:45:37;;;;;;;61.83;33.63;;;10.30;91.80;;;;;;4998683;28;20022;-82
2021/05/20 05:48:21;;;;;;;57.60;30.13;;;10.40;91.50;;;;;;5018980;28;20173;-81
2021/05/20 05:50:48;;;;;;;50.17;30.77;;;10.40;91.20;;;;;;5001573;28;20033;-82
2021/05/20 05:56:36;;;;;;;50.40;29.73;;;10.40;91.20;;;;;;5017528;28;20381;-82
2021/05/20 05:59:20;;;;;;;50.85;28.65;;;10.50;91.20;;;;;;4998792;28;20022;-82
2021/05/20 06:01:46;;;;;;;53.03;28.95;;;10.60;90.90;;;;;;5008540;28;20048;-82
2021/05/20 06:04:31;;;;;;;47.13;27.48;;;10.70;90.80;;;;;;5014672;28;20054;-82
2021/05/20 06:13:40;;;;;;;46.67;24.80;;;10.90;90.20;;;;;;5017943;28;20040;-82
2021/05/20 06:16:06;;;;;;;41.42;24.90;;;11.00;90.10;;;;;;5002992;28;20084;-83
2021/05/20 06:18:50;;;;;;;50.00;26.35;;;11.00;89.30;;;;;;4998840;28;20041;-81
2021/05/20 06:21:15;;;;;;;53.88;28.02;;;11.00;89.40;;;;;;5016355;28;20065;-82
2021/05/20 06:23:59;;;;;;;54.47;29.83;;;11.00;89.60;;;;;;4998497;28;20458;-82
2021/05/20 06:26:25;;;;;;;51.85;27.25;;;11.00;90.10;;;;;;4999118;28;20091;-82
2021/05/20 06:28:51;;;;;;;44.30;25.60;;;11.10;89.70;;;;;;5016426;28;20058;-82
2021/05/20 06:31:54;;;;;;;49.88;28.83;;;11.20;89.80;;;;;;5001618;28;20041;-82
2021/05/20 06:34:20;;;;;;;47.13;26.55;;;11.20;89.50;;;;;;5019156;28;20149;-81
2021/05/20 06:36:46;;;;;;;43.55;26.95;;;11.30;88.30;;;;;;4999815;28;20030;-81
2021/05/20 06:39:12;;;;;;;50.45;27.77;;;11.30;88.30;;;;;;5000099;28;20021;-82
2021/05/20 06:41:38;;;;;;;49.65;30.70;;;11.30;88.30;;;;;;5016812;28;20010;-82
2021/05/20 06:44:07;;;;;;;47.20;28.15;;;11.40;88.20;;;;;;5018148;28;20034;-82
2021/05/20 06:46:34;;;;;;;50.83;30.58;;;11.40;88.30;;;;;;5020611;28;20017;-82
2021/05/20 06:48:59;;;;;;;51.72;28.95;;;11.40;87.90;;;;;;5017820;28;20133;-82
2021/05/20 06:51:26;;;;;;;51.08;26.95;;;11.50;88.00;;;;;;5001114;28;20065;-81
2021/05/20 06:56:36;;;;;;;51.20;27.25;;;11.50;87.70;;;;;;5015794;28;20106;-82
2021/05/20 07:02:24;;;;;;;48.65;25.65;;;11.50;86.90;;;;;;5015993;28;20088;-85
2021/05/20 07:04:50;;;;;;;46.83;26.02;;;11.60;86.70;;;;;;4994037;28;20403;-79
2021/05/20 07:07:16;;;;;;;49.55;26.75;;;11.60;87.10;;;;;;4999328;28;20030;-79
2021/05/20 07:09:42;;;;;;;48.30;27.20;;;11.70;87.10;;;;;;5002148;28;20093;-77
2021/05/20 07:12:27;;;;;;;51.67;27.90;;;11.80;86.80;;;;;;4993128;28;20163;-79
2021/05/20 07:14:52;;;;;;;49.03;26.75;;;12.00;85.90;;;;;;4994749;28;20395;-79
2021/05/20 07:20:22;;;;;;;60.65;37.30;;;12.00;84.70;;;;;;5013947;28;20038;-80
2021/05/20 07:26:09;;;;;;;49.40;27.65;;;12.00;84.20;;;;;;4994369;28;20104;-79
2021/05/20 07:31:19;;;;;;;72.43;39.97;;;12.00;84.50;;;;;;4994121;28;20174;-78
2021/05/20 07:34:03;;;;;;;74.22;43.97;;;12.10;84.80;;;;;;4993290;28;20073;-79
2021/05/20 07:36:47;;;;;;;75.40;45.58;;;12.10;84.80;;;;;;4993339;28;20026;-78
2021/05/20 07:39:13;;;;;;;74.80;44.63;;;12.00;85.20;;;;;;4993716;28;20023;-79
2021/05/20 07:41:57;;;;;;;73.43;42.97;;;12.00;86.00;;;;;;4996248;28;20077;-79
2021/05/20 07:47:26;;;;;;;75.07;44.03;;;12.10;85.70;;;;;;4995419;28;20048;-78
2021/05/20 07:55:39;;;;;;;74.45;41.67;;;12.40;84.30;;;;;;5000881;28;20041;-78
2021/05/20 07:58:24;;;;;;;50.28;29.83;;;12.50;84.80;;;;;;5014061;28;20041;-78
2021/05/20 08:03:47;;;;;;;73.57;44.60;;;12.60;83.10;;;;;;4994699;28;20101;-80
2021/05/20 08:07:00;;;;;;;82.82;51.63;;;12.60;83.30;;;;;;4992089;28;20049;-79
2021/05/20 08:09:36;;;;;;;80.90;50.30;;;12.60;83.10;;;;;;4992458;28;20030;-79
2021/05/20 08:12:03;;;;;;;69.78;42.97;;;12.70;83.30;;;;;;4993891;28;20033;-79
2021/05/20 08:17:14;;;;;;;68.15;41.97;;;12.90;83.40;;;;;;4994019;28;20101;-80
2021/05/20 08:23:01;;;;;;;55.70;34.20;;;13.00;82.30;;;;;;5002484;28;20038;-81
2021/05/20 08:25:46;;;;;;;50.58;31.42;;;13.10;81.70;;;;;;4993678;28;20126;-79
2021/05/20 08:28:12;;;;;;;48.80;29.20;;;13.10;81.60;;;;;;4993159;28;20053;-80
2021/05/20 08:30:39;;;;;;;56.58;34.22;;;13.30;80.70;;;;;;4993634;28;20125;-79
2021/05/20 08:33:05;;;;;;;54.45;35.90;;;13.50;78.20;;;;;;4996627;28;20030;-79
2021/05/20 08:38:16;;;;;;;55.33;31.23;;;13.60;76.90;;;;;;5006836;28;20402;-79
2021/05/20 08:40:42;;;;;;;52.25;34.35;;;13.70;78.30;;;;;;5013327;28;20027;-78
2021/05/20 08:43:27;;;;;;;50.25;31.23;;;13.70;78.90;;;;;;5008565;28;20010;-81
2021/05/20 08:46:11;;;;;;;56.72;35.10;;;13.70;79.40;;;;;;5015677;28;20125;-79
2021/05/20 08:57:08;;;;;;;39.92;26.90;;;13.70;78.60;;;;;;5001213;28;20537;-79
2021/05/20 08:59:34;;;;;;;37.42;24.55;;;13.70;79.30;;;;;;4999141;28;20034;-83
2021/05/20 09:01:59;;;;;;;41.65;27.83;;;13.70;77.50;;;;;;4997291;28;20065;-83
2021/05/20 09:04:26;;;;;;;34.88;23.48;;;13.70;77.60;;;;;;5002482;28;20069;-82
2021/05/20 09:06:59;;;;;;;40.20;27.63;;;13.80;76.90;;;;;;5000442;28;20297;-81
2021/05/20 09:09:48;;;;;;;42.13;28.10;;;13.80;76.50;;;;;;4999523;28;20528;-81
2021/05/20 09:17:44;;;;;;;32.40;24.80;;;14.10;77.80;;;;;;5017168;28;20069;-82
2021/05/20 09:20:29;;;;;;;26.00;17.40;;;14.30;76.90;;;;;;5002884;28;20032;-83
2021/05/20 09:28:51;;;;;;;34.78;25.10;;;14.40;73.70;;;;;;5017999;28;20044;-84
2021/05/20 09:31:37;;;;;;;28.65;21.23;;;14.30;75.00;;;;;;4999702;28;20046;-81
2021/05/20 09:34:29;;;;;;;30.98;21.33;;;14.40;75.70;;;;;;5000952;28;20026;-84
2021/05/20 09:37:13;;;;;;;32.70;23.98;;;14.50;76.10;;;;;;5005291;28;20112;-79
2021/05/20 09:40:02;;;;;;;32.13;23.10;;;14.50;74.70;;;;;;5015608;28;20030;-81
2021/05/20 09:45:33;;;;;;;29.88;20.83;;;14.70;73.00;;;;;;5016192;28;20036;-80
2021/05/20 09:48:04;;;;;;;30.13;23.15;;;14.70;74.30;;;;;;4998863;28;20125;-82
2021/05/20 09:50:36;;;;;;;22.00;16.55;;;14.80;72.50;;;;;;5002190;28;20025;-81
2021/05/20 09:53:21;;;;;;;32.20;24.55;;;14.80;74.60;;;;;;5037184;28;20026;-78
2021/05/20 09:56:00;;;;;;;30.67;21.95;;;15.00;73.90;;;;;;5021601;28;20026;-80
2021/05/20 09:58:32;;;;;;;28.75;21.40;;;15.20;73.30;;;;;;5004431;28;20072;-79
2021/05/20 10:01:17;;;;;;;24.65;19.42;;;15.30;71.90;;;;;;5001929;28;20021;-80
2021/05/20 10:07:23;;;;;;;18.23;13.52;;;15.30;70.90;;;;;;5017231;28;20081;-80
2021/05/20 10:10:07;;;;;;;23.98;18.23;;;15.60;72.30;;;;;;5016318;28;20548;-81
2021/05/20 10:12:33;;;;;;;16.05;12.48;;;15.80;67.70;;;;;;4997979;28;20034;-79
2021/05/20 10:15:00;;;;;;;23.30;18.00;;;15.90;70.00;;;;;;4997935;28;20022;-80
2021/05/20 10:20:29;;;;;;;20.65;16.02;;;16.00;70.00;;;;;;5016585;28;20057;-79
2021/05/20 10:22:59;;;;;;;23.98;19.02;;;16.00;67.80;;;;;;4999290;28;20038;-78
2021/05/20 10:25:26;;;;;;;22.75;18.65;;;16.00;68.80;;;;;;4998256;28;20076;-78
2021/05/20 10:27:52;;;;;;;28.77;20.20;;;16.30;67.20;;;;;;4997674;28;20029;-78
2021/05/20 10:30:37;;;;;;;23.25;18.67;;;16.40;65.70;;;;;;4998178;28;20030;-78
2021/05/20 10:33:21;;;;;;;26.20;19.30;;;16.30;65.40;;;;;;4997977;28;20369;-78
2021/05/20 10:35:57;;;;;;;29.70;20.83;;;16.20;67.40;;;;;;5000181;28;20030;-80
2021/05/20 10:38:42;;;;;;;23.20;17.48;;;16.30;67.00;;;;;;5015858;28;20022;-81
2021/05/20 10:44:30;;;;;;;23.25;17.98;;;16.80;67.90;;;;;;5024888;28;20084;-77
2021/05/20 10:50:17;;;;;;;21.10;17.50;;;17.50;65.60;;;;;;5016650;28;20049;-80
2021/05/20 10:52:46;;;;;;;22.08;18.67;;;17.70;65.20;;;;;;4997743;28;20030;-79
2021/05/20 10:55:14;;;;;;;20.63;16.33;;;17.70;63.10;;;;;;4997058;28;20025;-78
2021/05/20 10:58:00;;;;;;;12.35;8.63;;;18.00;63.50;;;;;;4997460;28;20030;-78
2021/05/20 11:00:36;;;;;;;19.65;16.15;;;18.30;65.10;;;;;;4997587;28;20029;-77
2021/05/20 11:08:37;;;;;;;21.45;17.13;;;18.40;61.00;;;;;;5015436;28;20048;-79
2021/05/20 11:11:03;;;;;;;23.88;20.13;;;18.50;61.80;;;;;;4997926;28;20390;-78
2021/05/20 11:13:37;;;;;;;25.85;20.70;;;18.50;60.00;;;;;;4997949;28;20022;-78
2021/05/20 11:16:12;;;;;;;26.88;22.52;;;18.70;59.40;;;;;;4999243;28;20073;-79
2021/05/20 11:19:15;;;;;;;20.10;15.93;;;18.70;58.50;;;;;;4999195;28;20025;-78
2021/05/20 11:22:18;;;;;;;26.48;20.25;;;18.70;60.80;;;;;;4999842;28;20030;-79
2021/05/20 11:25:09;;;;;;;30.35;23.45;;;18.60;61.80;;;;;;5005453;28;20030;-79
2021/05/20 11:27:56;;;;;;;28.83;22.20;;;18.30;61.90;;;;;;5013785;28;20017;-79
2021/05/20 11:30:40;;;;;;;24.50;19.15;;;18.20;61.00;;;;;;5004502;28;20025;-77
2021/05/20 11:33:26;;;;;;;33.55;24.42;;;18.30;61.80;;;;;;4998764;28;20036;-83
2021/05/20 11:39:03;;;;;;;44.97;33.00;;;18.90;59.40;;;;;;5017032;28;20092;-79
2021/05/20 11:44:32;;;;;;;34.70;26.05;;;18.60;62.60;;;;;;5018087;28;20065;-80
2021/05/20 11:47:27;;;;;;;31.75;23.90;;;18.70;61.10;;;;;;5003795;28;20045;-80
2021/05/20 11:49:53;;;;;;;36.35;28.17;;;19.00;60.50;;;;;;5015381;28;20022;-80
2021/05/20 11:56:00;;;;;;;38.15;29.58;;;19.40;60.40;;;;;;5014886;28;20088;-79
2021/05/20 11:58:45;;;;;;;38.97;28.67;;;19.50;54.40;;;;;;5005516;28;20037;-79
2021/05/20 12:01:11;;;;;;;32.20;22.33;;;19.70;54.60;;;;;;5017931;28;20137;-80
2021/05/20 12:07:07;;;;;;;38.70;29.58;;;19.60;53.90;;;;;;5021913;28;20409;-82
2021/05/20 12:09:52;;;;;;;33.90;26.60;;;19.30;56.30;;;;;;5003115;28;20030;-82
2021/05/20 12:12:19;;;;;;;30.25;21.75;;;19.20;53.60;;;;;;5001613;28;20490;-84
2021/05/20 12:14:45;;;;;;;31.45;25.25;;;19.20;57.70;;;;;;5001618;28;20033;-82
2021/05/20 12:20:00;;;;;;;30.98;23.98;;;19.10;60.30;;;;;;5019207;28;20076;-79
2021/05/20 12:22:58;;;;;;;32.13;26.27;;;18.90;57.10;;;;;;5004354;28;20022;-82
2021/05/20 12:25:57;;;;;;;28.58;22.80;;;18.70;55.50;;;;;;5017122;28;20402;-82
2021/05/20 12:28:41;;;;;;;24.92;19.77;;;18.50;56.80;;;;;;5001021;28;20033;-81
2021/05/20 12:31:07;;;;;;;34.22;27.65;;;18.40;58.70;;;;;;5019731;28;20029;-81
2021/05/20 12:33:36;;;;;;;21.63;17.30;;;18.40;56.60;;;;;;5006295;28;20026;-79
2021/05/20 12:36:35;;;;;;;15.98;11.18;;;18.40;63.00;;;;;;5016740;28;20090;-79
2021/05/20 12:39:39;;;;;;;31.30;23.17;;;18.20;66.90;;;;;;5019284;28;20030;-82
2021/05/20 12:42:32;;;;;;;31.05;25.25;;;18.00;62.00;;;;;;5020338;28;20018;-79
2021/05/20 12:51:21;;;;;;;25.75;21.50;;;18.00;61.10;;;;;;5016932;28;20088;-80
2021/05/20 12:54:12;;;;;;;26.50;22.95;;;18.30;60.50;;;;;;4999310;28;20021;-80
2021/05/20 12:57:04;;;;;;;25.48;21.55;;;18.30;59.80;;;;;;4999465;28;20026;-81
2021/05/20 13:03:00;;;;;;;15.90;12.23;;;18.30;57.70;;;;;;5019311;28;20040;-79
2021/05/20 13:08:31;;;;;;;14.85;11.15;;;18.50;59.30;;;;;;4996586;28;20548;-81
2021/05/20 13:10:57;;;;;;;16.02;14.32;;;18.60;62.50;;;;;;4997480;28;20085;-85
2021/05/20 13:13:32;;;;;;;10.05;7.15;;;18.70;64.70;;;;;;4999868;28;20094;-85
2021/05/20 13:24:46;;;;;;;19.83;17.33;;;18.40;61.90;;;;;;4997741;28;20038;-80
2021/05/20 13:27:16;;;;;;;16.52;14.07;;;18.40;56.90;;;;;;4997635;28;20327;-79
2021/05/20 13:35:32;;;;;;;14.95;11.95;;;18.20;55.70;;;;;;4999789;28;20033;-79
2021/05/20 13:38:24;;;;;;;15.23;11.07;;;18.00;56.40;;;;;;4998529;28;20041;-80
2021/05/20 13:41:08;;;;;;;14.75;9.77;;;18.00;56.50;;;;;;4997619;28;20466;-80
2021/05/20 13:46:56;;;;;;;12.60;9.00;;;18.00;60.00;;;;;;5013018;28;20042;-79
2021/05/20 13:49:52;;;;;;;10.27;7.75;;;18.00;57.60;;;;;;5008482;28;20046;-79
2021/05/20 13:52:24;;;;;;;15.20;9.85;;;18.10;59.20;;;;;;4996052;28;20050;-79
2021/05/20 14:00:30;;;;;;;15.43;9.25;;;18.30;60.70;;;;;;4999806;28;20033;-80
2021/05/20 14:03:00;;;;;;;12.63;8.55;;;18.30;60.10;;;;;;4997904;28;20026;-80
2021/05/20 14:05:26;;;;;;;12.05;8.05;;;18.20;60.70;;;;;;5001171;28;20073;-82
2021/05/20 14:11:01;;;;;;;12.48;8.48;;;18.10;57.90;;;;;;4994640;28;20042;-82
2021/05/20 14:14:05;;;;;;;11.55;6.55;;;18.00;59.50;;;;;;4973541;28;20030;-77
2021/05/20 14:16:49;;;;;;;11.18;7.30;;;17.90;60.60;;;;;;4956904;29;20051;-79
2021/05/20 14:19:15;;;;;;;9.00;6.20;;;17.90;60.70;;;;;;4957340;29;20127;-83
2021/05/20 14:21:41;;;;;;;7.57;5.05;;;17.80;61.70;;;;;;4955643;28;20055;-83
2021/05/20 14:24:25;;;;;;;7.13;5.10;;;17.90;61.60;;;;;;4957640;28;20055;-82
2021/05/20 14:33:36;;;;;;;11.38;5.32;;;18.00;59.00;;;;;;4959979;29;20093;-81
2021/05/20 14:36:01;;;;;;;7.03;4.53;;;18.00;62.30;;;;;;4967705;28;20023;-80
2021/05/20 14:38:46;;;;;;;8.52;4.72;;;17.90;63.00;;;;;;4972693;29;20046;-80
2021/05/20 14:41:12;;;;;;;10.57;5.07;;;17.80;63.50;;;;;;4974261;29;20071;-81
2021/05/20 14:47:02;;;;;;;10.02;4.50;;;17.60;58.60;;;;;;4960792;29;20101;-80
2021/05/20 14:52:05;;;;;;;8.25;4.90;;;17.70;59.10;;;;;;4957537;28;20131;-80
2021/05/20 14:54:57;;;;;;;7.78;4.45;;;17.70;57.10;;;;;;4954780;28;20027;-80
2021/05/20 15:12:05;;;;;;;5.65;3.17;;;17.60;59.30;;;;;;4994907;28;20041;-79
2021/05/20 15:19:59;;;;;;;5.22;2.83;;;17.50;57.20;;;;;;4995398;28;20042;-77
2021/05/20 15:22:25;;;;;;;5.13;2.33;;;17.50;55.90;;;;;;4977333;28;20117;-79
2021/05/20 15:27:35;;;;;;;3.25;1.80;;;17.50;57.60;;;;;;4994827;28;20046;-78
2021/05/20 15:33:05;;;;;;;4.47;2.22;;;17.60;58.50;;;;;;4997960;28;20060;-78
2021/05/20 15:35:50;;;;;;;5.57;1.95;;;17.70;59.20;;;;;;4982016;28;20459;-79
2021/05/20 15:41:37;;;;;;;6.63;2.80;;;17.80;58.60;;;;;;5012370;28;20041;-78
2021/05/20 15:44:22;;;;;;;6.18;2.88;;;17.80;62.10;;;;;;5006852;28;20027;-79
2021/05/20 15:47:13;;;;;;;6.50;2.40;;;17.80;59.00;;;;;;4977603;28;20105;-79
2021/05/20 15:52:23;;;;;;;4.85;2.65;;;17.70;58.00;;;;;;4995283;28;20111;-79
2021/05/20 15:54:49;;;;;;;7.30;2.50;;;17.80;56.20;;;;;;4977355;28;20026;-77
2021/05/20 15:57:15;;;;;;;4.38;2.58;;;17.80;55.50;;;;;;4978166;28;20438;-78
2021/05/20 15:59:41;;;;;;;4.63;2.55;;;17.80;55.00;;;;;;4978390;28;20029;-78
2021/05/20 16:02:08;;;;;;;4.38;2.22;;;17.80;60.00;;;;;;4977142;28;20023;-79
2021/05/20 16:04:58;;;;;;;3.35;1.83;;;17.70;56.80;;;;;;4994314;28;20077;-78
2021/05/20 16:18:14;;;;;;;4.78;1.52;;;17.50;60.00;;;;;;4996409;28;20042;-79
2021/05/20 16:40:11;;;;;;;2.10;1.13;;;16.90;62.10;;;;;;5004368;28;20126;-77
2021/05/20 16:42:55;;;;;;;4.22;1.50;;;16.80;59.10;;;;;;4996286;28;20023;-78
2021/05/20 16:48:06;;;;;;;3.97;1.67;;;16.70;60.90;;;;;;4995865;28;20513;-77
2021/05/20 16:50:31;;;;;;;4.60;2.35;;;16.70;56.80;;;;;;4999665;28;20455;-77
2021/05/20 16:55:52;;;;;;;3.20;1.02;;;16.60;58.80;;;;;;4998942;28;20033;-77
2021/05/20 16:58:31;;;;;;;1.17;0.75;;;16.60;53.80;;;;;;4980940;28;20100;-77
2021/05/20 17:01:16;;;;;;;3.33;0.90;;;16.70;56.60;;;;;;4980688;28;20033;-78
2021/05/20 17:04:01;;;;;;;2.13;0.80;;;16.60;59.50;;;;;;4979848;28;20457;-77
2021/05/20 17:06:26;;;;;;;2.70;0.98;;;16.50;59.20;;;;;;4997850;28;20513;-78
2021/05/20 17:08:52;;;;;;;4.00;0.95;;;16.60;56.30;;;;;;4980143;28;20034;-77
2021/05/20 17:14:21;;;;;;;3.78;0.93;;;16.50;59.50;;;;;;4997715;28;20041;-78
2021/05/20 17:20:28;;;;;;;3.08;1.00;;;16.60;61.00;;;;;;4997626;28;20037;-78
2021/05/20 17:23:12;;;;;;;3.25;0.88;;;16.60;59.60;;;;;;4981463;28;20129;-81
2021/05/20 17:25:56;;;;;;;3.53;1.10;;;16.50;58.70;;;;;;5009897;28;20030;-81
2021/05/20 17:28:40;;;;;;;3.10;1.00;;;16.50;55.60;;;;;;4981133;28;20057;-80
2021/05/20 17:31:25;;;;;;;2.47;1.02;;;16.40;56.20;;;;;;4987849;28;20014;-77
2021/05/20 17:33:50;;;;;;;3.70;1.00;;;16.40;58.50;;;;;;5000580;28;20058;-77
2021/05/20 17:36:16;;;;;;;2.10;1.20;;;16.40;59.60;;;;;;4989518;28;20034;-77
2021/05/20 17:41:44;;;;;;;4.47;1.25;;;16.30;61.10;;;;;;5007419;28;20061;-79
2021/05/20 17:47:13;;;;;;;3.90;1.25;;;16.20;64.60;;;;;;4999559;28;20409;-82
2021/05/20 17:49:39;;;;;;;3.28;1.10;;;16.10;59.60;;;;;;4981182;28;20086;-78
2021/05/20 17:52:23;;;;;;;2.88;1.05;;;16.10;58.30;;;;;;4978806;28;20022;-78
2021/05/20 17:55:26;;;;;;;3.92;1.10;;;16.00;61.50;;;;;;4980933;28;20112;-80
2021/05/20 18:00:36;;;;;;;4.65;1.60;;;15.90;64.30;;;;;;5001083;28;20041;-78
2021/05/20 18:06:05;;;;;;;4.90;1.55;;;15.80;65.30;;;;;;4996786;28;20070;-79
2021/05/20 18:17:15;;;;;;;3.13;1.20;;;15.70;64.70;;;;;;4996327;28;20118;-78
2021/05/20 18:23:13;;;;;;;4.07;1.48;;;15.70;62.00;;;;;;4985918;28;20104;-78
2021/05/20 18:25:57;;;;;;;3.75;1.10;;;15.70;67.10;;;;;;4982636;28;20030;-78
2021/05/20 18:28:23;;;;;;;4.00;1.38;;;15.70;63.90;;;;;;4981447;28;20026;-77
2021/05/20 18:31:09;;;;;;;3.25;1.35;;;15.60;63.10;;;;;;4980603;28;20351;-79
2021/05/20 18:34:12;;;;;;;2.83;1.20;;;15.60;62.40;;;;;;4982718;28;20026;-78
2021/05/20 18:36:57;;;;;;;3.10;1.42;;;15.60;63.30;;;;;;4994607;28;20018;-78
2021/05/20 18:39:46;;;;;;;3.10;1.02;;;15.60;66.70;;;;;;4987358;28;20126;-78
2021/05/20 18:42:26;;;;;;;7.23;1.93;;;15.50;67.50;;;;;;4998207;28;20050;-79
2021/05/20 18:45:13;;;;;;;3.63;1.88;;;15.50;66.20;;;;;;4983851;28;20607;-77
2021/05/20 18:47:42;;;;;;;3.70;1.45;;;15.50;64.10;;;;;;4999343;28;20109;-79
2021/05/20 18:50:45;;;;;;;5.57;1.80;;;15.50;66.20;;;;;;4981051;28;20022;-77
2021/05/20 18:53:49;;;;;;;4.13;1.17;;;15.50;66.00;;;;;;4981589;28;20042;-78